sensor_id;sensor_type;location;lat;lon;timestamp;pressure;altitude;pressure_sealevel;temperature;humidity
15750;BME280;7976;52.526;13.326;2023-08-24T00:00:37;101383.41;;;21.39;70.05
15750;BME280;7976;52.526;13.326;2023-08-24T00:03:04;101376.50;;;21.37;69.39
15750;BME280;7976;52.526;13.326;2023-08-24T00:05:33;101378.44;;;21.35;69.69
15750;BME280;7976;52.526;13.326;2023-08-24T00:08:03;101368.00;;;21.32;nan
15750;BME280;7976;52.526;13.326;2023-08-24T00:10:31;101377.91;;;21.30;69.10
15750;BME280;7976;52.526;13.326;2023-08-24T00:12:58;101373.53;;;21.29;69.54
15750;BME280;7976;52.526;13.326;2023-08-24T00:15:25;101378.97;;;21.27;69.19
15750;BME280;7976;52.526;13.326;2023-08-24T00:17:52;101378.97;;;21.27;68.62
15750;BME280;7976;52.526;13.326;2023-08-24T00:20:19;101378.22;;;21.25;68.74
15750;BME280;7976;52.526;13.326;2023-08-24T00:22:46;101366.94;;;21.22;69.06
15750;BME280;7976;52.526;13.326;2023-08-24T00:25:14;101364.47;;;21.18;69.42
15750;BME280;7976;52.526;13.326;2023-08-24T00:27:42;101362.91;;;21.16;69.38
15750;BME280;7976;52.526;13.326;2023-08-24T00:30:11;101359.38;;;21.15;70.07
15750;BME280;7976;52.526;13.326;2023-08-24T00:32:37;101351.63;;;21.12;70.10
15750;BME280;7976;52.526;13.326;2023-08-24T00:35:07;101362.38;;;21.11;70.06
15750;BME280;7976;52.526;13.326;2023-08-24T00:37:35;101371.41;;;21.08;70.32
15750;BME280;7976;52.526;13.326;2023-08-24T00:40:05;101362.78;;;21.05;70.74
15750;BME280;7976;52.526;13.326;2023-08-24T00:42:37;101361.97;;;21.04;71.01
15750;BME280;7976;52.526;13.326;2023-08-24T00:45:09;101359.41;;;21.03;70.90
15750;BME280;7976;52.526;13.326;2023-08-24T00:47:37;101363.00;;;21.02;71.18
15750;BME280;7976;52.526;13.326;2023-08-24T00:50:07;101356.00;;;21.01;70.64
15750;BME280;7976;52.526;13.326;2023-08-24T00:52:37;101361.31;;;21.01;70.64
15750;BME280;7976;52.526;13.326;2023-08-24T00:55:07;101353.44;;;20.99;71.04
15750;BME280;7976;52.526;13.326;2023-08-24T00:57:35;101351.72;;;20.98;70.98
15750;BME280;7976;52.526;13.326;2023-08-24T01:00:07;101348.31;;;20.96;71.09
15750;BME280;7976;52.526;13.326;2023-08-24T01:02:36;101353.56;;;20.98;70.99
15750;BME280;7976;52.526;13.326;2023-08-24T01:05:03;101347.38;;;20.97;71.19
15750;BME280;7976;52.526;13.326;2023-08-24T01:07:30;101350.91;;;20.98;71.18
15750;BME280;7976;52.526;13.326;2023-08-24T01:09:58;101351.63;;;21.00;71.29
15750;BME280;7976;52.526;13.326;2023-08-24T01:12:34;101347.03;;;21.02;71.08
15750;BME280;7976;52.526;13.326;2023-08-24T01:15:13;101348.75;;;21.03;71.00
15750;BME280;7976;52.526;13.326;2023-08-24T01:17:43;101344.38;;;21.02;71.28
15750;BME280;7976;52.526;13.326;2023-08-24T01:20:13;101344.50;;;21.00;71.78
15750;BME280;7976;52.526;13.326;2023-08-24T01:22:49;101344.59;;;20.99;72.05
15750;BME280;7976;52.526;13.326;2023-08-24T01:25:32;101343.63;;;21.00;71.54
15750;BME280;7976;52.526;13.326;2023-08-24T01:28:05;101351.44;;;21.03;71.97
15750;BME280;7976;52.526;13.326;2023-08-24T01:30:34;101346.81;;;21.05;71.65
15750;BME280;7976;52.526;13.326;2023-08-24T01:33:03;101349.41;;;21.06;72.09
15750;BME280;7976;52.526;13.326;2023-08-24T01:35:31;101343.22;;;21.06;71.87
15750;BME280;7976;52.526;13.326;2023-08-24T01:37:59;101346.63;;;21.08;72.26
15750;BME280;7976;52.526;13.326;2023-08-24T01:40:48;101346.63;;;21.08;72.50
15750;BME280;7976;52.526;13.326;2023-08-24T01:43:20;101356.19;;;21.10;72.35
15750;BME280;7976;52.526;13.326;2023-08-24T01:45:51;101352.66;;;21.10;72.80
15750;BME280;7976;52.526;13.326;2023-08-24T01:48:20;101355.34;;;21.10;72.79
15750;BME280;7976;52.526;13.326;2023-08-24T01:50:49;101352.66;;;21.10;73.25
15750;BME280;7976;52.526;13.326;2023-08-24T01:53:16;101347.34;;;21.10;72.84
15750;BME280;7976;52.526;13.326;2023-08-24T01:55:45;101353.41;;;21.12;72.77
15750;BME280;7976;52.526;13.326;2023-08-24T01:58:12;101350.66;;;21.13;72.94
15750;BME280;7976;52.526;13.326;2023-08-24T02:00:40;101348.84;;;21.14;73.68
15750;BME280;7976;52.526;13.326;2023-08-24T02:03:07;101339.34;;;21.10;73.33
15750;BME280;7976;52.526;13.326;2023-08-24T02:05:33;101341.06;;;21.11;73.14
15750;BME280;7976;52.526;13.326;2023-08-24T02:08:00;101342.88;;;21.10;72.92
15750;BME280;7976;52.526;13.326;2023-08-24T02:10:27;101343.84;;;21.09;73.46
15750;BME280;7976;52.526;13.326;2023-08-24T02:12:54;101345.66;;;21.09;73.40
15750;BME280;7976;52.526;13.326;2023-08-24T02:15:21;101343.84;;;21.09;73.64
15750;BME280;7976;52.526;13.326;2023-08-24T02:17:50;101340.22;;;21.10;73.43
15750;BME280;7976;52.526;13.326;2023-08-24T02:20:17;101342.03;;;21.10;73.31
15750;BME280;7976;52.526;13.326;2023-08-24T02:22:44;101340.22;;;21.10;73.22
15750;BME280;7976;52.526;13.326;2023-08-24T02:25:10;101340.09;;;21.12;72.90
15750;BME280;7976;52.526;13.326;2023-08-24T02:27:37;101333.09;;;21.11;73.19
15750;BME280;7976;52.526;13.326;2023-08-24T02:30:06;101345.31;;;21.13;72.90
15750;BME280;7976;52.526;13.326;2023-08-24T02:32:33;101341.72;;;21.14;72.25
15750;BME280;7976;52.526;13.326;2023-08-24T02:35:01;101347.78;;;21.17;71.97
15750;BME280;7976;52.526;13.326;2023-08-24T02:37:30;101340.63;;;21.17;71.92
15750;BME280;7976;52.526;13.326;2023-08-24T02:39:57;101336.16;;;21.17;71.99
15750;BME280;7976;52.526;13.326;2023-08-24T02:42:23;101338.72;;;21.19;71.79
15750;BME280;7976;52.526;13.326;2023-08-24T02:44:50;101330.59;;;21.21;71.44
15750;BME280;7976;52.526;13.326;2023-08-24T02:47:17;101336.81;;;21.21;71.36
15750;BME280;7976;52.526;13.326;2023-08-24T02:49:46;101329.75;;;21.20;71.25
15750;BME280;7976;52.526;13.326;2023-08-24T02:52:14;101333.16;;;21.22;71.61
15750;BME280;7976;52.526;13.326;2023-08-24T02:54:41;101327.84;;;21.22;71.68
15750;BME280;7976;52.526;13.326;2023-08-24T02:57:08;101332.22;;;21.23;71.80
15750;BME280;7976;52.526;13.326;2023-08-24T02:59:35;101331.34;;;21.23;71.99
15750;BME280;7976;52.526;13.326;2023-08-24T03:02:02;101327.84;;;21.22;71.57
15750;BME280;7976;52.526;13.326;2023-08-24T03:04:30;101325.91;;;21.24;71.42
15750;BME280;7976;52.526;13.326;2023-08-24T03:06:57;101325.16;;;21.22;71.09
15750;BME280;7976;52.526;13.326;2023-08-24T03:09:25;101331.47;;;21.21;71.22
15750;BME280;7976;52.526;13.326;2023-08-24T03:11:52;101331.69;;;21.18;71.12
15750;BME280;7976;52.526;13.326;2023-08-24T03:14:19;101335.41;;;21.15;71.07
15750;BME280;7976;52.526;13.326;2023-08-24T03:16:46;101331.19;;;21.13;71.50
15750;BME280;7976;52.526;13.326;2023-08-24T03:19:13;101331.19;;;21.13;71.08
15750;BME280;7976;52.526;13.326;2023-08-24T03:21:40;101339.88;;;21.15;71.10
15750;BME280;7976;52.526;13.326;2023-08-24T03:24:07;101342.53;;;21.15;71.19
15750;BME280;7976;52.526;13.326;2023-08-24T03:26:36;101335.53;;;21.14;70.93
15750;BME280;7976;52.526;13.326;2023-08-24T03:29:02;101333.09;;;21.11;71.23
15750;BME280;7976;52.526;13.326;2023-08-24T03:31:29;101332.13;;;21.12;70.69
15750;BME280;7976;52.526;13.326;2023-08-24T03:33:56;101338.41;;;21.11;70.63
15750;BME280;7976;52.526;13.326;2023-08-24T03:36:23;101329.56;;;21.10;70.67
15750;BME280;7976;52.526;13.326;2023-08-24T03:38:50;101325.97;;;21.11;70.99
15750;BME280;7976;52.526;13.326;2023-08-24T03:41:17;101328.50;;;21.13;70.55
15750;BME280;7976;52.526;13.326;2023-08-24T03:43:47;101317.00;;;21.12;70.34
15750;BME280;7976;52.526;13.326;2023-08-24T03:46:14;101314.22;;;21.14;70.24
15750;BME280;7976;52.526;13.326;2023-08-24T03:48:42;101318.06;;;21.10;70.05
15750;BME280;7976;52.526;13.326;2023-08-24T03:51:09;101309.97;;;21.11;70.03
15750;BME280;7976;52.526;13.326;2023-08-24T03:53:37;101318.69;;;21.13;69.75
15750;BME280;7976;52.526;13.326;2023-08-24T03:56:06;101308.91;;;21.14;69.46
15750;BME280;7976;52.526;13.326;2023-08-24T03:58:32;101315.09;;;21.14;69.48
15750;BME280;7976;52.526;13.326;2023-08-24T04:01:01;101306.22;;;21.14;69.34
15750;BME280;7976;52.526;13.326;2023-08-24T04:03:28;101312.53;;;21.13;68.75
15750;BME280;7976;52.526;13.326;2023-08-24T04:05:55;101314.34;;;21.12;68.90
15750;BME280;7976;52.526;13.326;2023-08-24T04:08:22;101309.97;;;21.11;68.72
15750;BME280;7976;52.526;13.326;2023-08-24T04:10:49;101311.69;;;21.12;68.40
15750;BME280;7976;52.526;13.326;2023-08-24T04:13:17;101312.53;;;21.13;68.56
15750;BME280;7976;52.526;13.326;2023-08-24T04:15:43;101316.88;;;21.14;68.50
15750;BME280;7976;52.526;13.326;2023-08-24T04:18:12;101317.63;;;21.16;68.53
15750;BME280;7976;52.526;13.326;2023-08-24T04:20:39;101320.28;;;21.16;68.76
15750;BME280;7976;52.526;13.326;2023-08-24T04:23:05;101319.31;;;21.17;68.67
15750;BME280;7976;52.526;13.326;2023-08-24T04:25:32;101317.41;;;21.19;68.52
15750;BME280;7976;52.526;13.326;2023-08-24T04:27:59;101313.06;;;21.18;68.73
15750;BME280;7976;52.526;13.326;2023-08-24T04:30:26;101305.06;;;21.18;68.27
15750;BME280;7976;52.526;13.326;2023-08-24T04:32:53;101318.38;;;21.18;68.31
15750;BME280;7976;52.526;13.326;2023-08-24T04:35:21;101319.22;;;21.18;68.58
15750;BME280;7976;52.526;13.326;2023-08-24T04:37:47;101304.22;;;21.17;68.22
15750;BME280;7976;52.526;13.326;2023-08-24T04:40:14;101319.31;;;21.17;68.55
15750;BME280;7976;52.526;13.326;2023-08-24T04:42:41;101318.50;;;21.17;68.70
15750;BME280;7976;52.526;13.326;2023-08-24T04:45:09;101316.78;;;21.15;68.29
15750;BME280;7976;52.526;13.326;2023-08-24T04:47:36;101320.41;;;21.14;68.54
15750;BME280;7976;52.526;13.326;2023-08-24T04:50:03;101317.88;;;21.13;68.60
15750;BME280;7976;52.526;13.326;2023-08-24T04:52:32;101316.38;;;21.09;68.89
15750;BME280;7976;52.526;13.326;2023-08-24T04:55:00;101313.59;;;21.10;68.61
15750;BME280;7976;52.526;13.326;2023-08-24T04:57:29;101321.56;;;21.10;69.15
15750;BME280;7976;52.526;13.326;2023-08-24T04:59:56;101327.75;;;21.11;69.30
15750;BME280;7976;52.526;13.326;2023-08-24T05:02:23;101326.78;;;21.12;69.19
15750;BME280;7976;52.526;13.326;2023-08-24T05:04:50;101321.47;;;21.12;69.71
15750;BME280;7976;52.526;13.326;2023-08-24T05:07:17;101332.75;;;21.15;69.62
15750;BME280;7976;52.526;13.326;2023-08-24T05:09:45;101337.03;;;21.18;69.61
15750;BME280;7976;52.526;13.326;2023-08-24T05:12:12;101329.97;;;21.17;69.86
15750;BME280;7976;52.526;13.326;2023-08-24T05:14:39;101327.19;;;21.18;69.36
15750;BME280;7976;52.526;13.326;2023-08-24T05:17:06;101326.16;;;21.21;69.33
15750;BME280;7976;52.526;13.326;2023-08-24T05:19:32;101325.16;;;21.22;69.65
15750;BME280;7976;52.526;13.326;2023-08-24T05:21:59;101324.94;;;21.25;70.06
15750;BME280;7976;52.526;13.326;2023-08-24T05:24:26;101323.03;;;21.27;69.59
15750;BME280;7976;52.526;13.326;2023-08-24T05:26:54;101321.13;;;21.29;69.81
15750;BME280;7976;52.526;13.326;2023-08-24T05:29:21;101328.03;;;21.32;69.38
15750;BME280;7976;52.526;13.326;2023-08-24T05:31:48;101326.09;;;21.34;69.48
15750;BME280;7976;52.526;13.326;2023-08-24T05:34:14;101331.13;;;21.38;69.86
15750;BME280;7976;52.526;13.326;2023-08-24T05:36:41;101332.69;;;21.41;69.80
15750;BME280;7976;52.526;13.326;2023-08-24T05:39:08;101334.28;;;21.43;69.90
15750;BME280;7976;52.526;13.326;2023-08-24T05:41:35;101334.19;;;21.45;69.56
15750;BME280;7976;52.526;13.326;2023-08-24T05:44:04;101329.69;;;21.45;69.86
15750;BME280;7976;52.526;13.326;2023-08-24T05:46:32;101330.78;;;21.43;69.63
15750;BME280;7976;52.526;13.326;2023-08-24T05:48:59;101331.81;;;21.40;69.75
15750;BME280;7976;52.526;13.326;2023-08-24T05:51:26;101331.00;;;21.40;69.63
15750;BME280;7976;52.526;13.326;2023-08-24T05:53:53;101328.09;;;21.43;69.72
15750;BME280;7976;52.526;13.326;2023-08-24T05:56:21;101329.69;;;21.45;69.99
15750;BME280;7976;52.526;13.326;2023-08-24T05:58:48;101333.84;;;21.49;69.83
15750;BME280;7976;52.526;13.326;2023-08-24T06:01:16;101337.38;;;21.50;69.54
15750;BME280;7976;52.526;13.326;2023-08-24T06:03:43;101330.31;;;21.49;69.78
15750;BME280;7976;52.526;13.326;2023-08-24T06:06:10;101322.44;;;21.47;69.95
15750;BME280;7976;52.526;13.326;2023-08-24T06:08:37;101327.53;;;21.50;69.44
15750;BME280;7976;52.526;13.326;2023-08-24T06:11:04;101321.25;;;21.51;69.79
15750;BME280;7976;52.526;13.326;2023-08-24T06:13:30;101324.78;;;21.52;69.76
15750;BME280;7976;52.526;13.326;2023-08-24T06:15:57;101335.22;;;21.55;69.62
15750;BME280;7976;52.526;13.326;2023-08-24T06:18:25;101339.44;;;21.57;69.51
15750;BME280;7976;52.526;13.326;2023-08-24T06:20:53;101334.88;;;21.59;69.45
15750;BME280;7976;52.526;13.326;2023-08-24T06:23:20;101335.72;;;21.60;69.53
15750;BME280;7976;52.526;13.326;2023-08-24T06:25:48;101337.19;;;21.64;69.48
15750;BME280;7976;52.526;13.326;2023-08-24T06:28:14;101335.03;;;21.69;69.05
15750;BME280;7976;52.526;13.326;2023-08-24T06:30:42;101330.22;;;21.74;68.85
15750;BME280;7976;52.526;13.326;2023-08-24T06:33:10;101327.25;;;21.78;68.94
15750;BME280;7976;52.526;13.326;2023-08-24T06:35:38;101327.25;;;21.78;68.60
15750;BME280;7976;52.526;13.326;2023-08-24T06:38:05;101326.91;;;21.83;68.95
15750;BME280;7976;52.526;13.326;2023-08-24T06:40:32;101319.53;;;21.86;68.69
15750;BME280;7976;52.526;13.326;2023-08-24T06:42:59;101319.31;;;21.89;68.99
15750;BME280;7976;52.526;13.326;2023-08-24T06:45:26;101327.81;;;21.94;68.90
15750;BME280;7976;52.526;13.326;2023-08-24T06:47:52;101331.84;;;22.00;68.85
15750;BME280;7976;52.526;13.326;2023-08-24T06:50:20;101339.50;;;22.04;69.46
15750;BME280;7976;52.526;13.326;2023-08-24T06:52:48;101344.34;;;22.10;69.28
15750;BME280;7976;52.526;13.326;2023-08-24T06:55:15;101345.81;;;22.14;68.95
15750;BME280;7976;52.526;13.326;2023-08-24T06:57:48;101345.47;;;22.19;68.57
15750;BME280;7976;52.526;13.326;2023-08-24T07:00:17;101354.72;;;22.26;68.44
15750;BME280;7976;52.526;13.326;2023-08-24T07:02:45;101351.59;;;22.32;68.72
15750;BME280;7976;52.526;13.326;2023-08-24T07:05:12;101350.25;;;22.37;68.15
15750;BME280;7976;52.526;13.326;2023-08-24T07:07:39;101341.06;;;22.42;68.02
15750;BME280;7976;52.526;13.326;2023-08-24T07:10:08;101357.34;;;22.50;67.83
15750;BME280;7976;52.526;13.326;2023-08-24T07:12:35;101351.56;;;22.56;68.45
15750;BME280;7976;52.526;13.326;2023-08-24T07:15:05;101345.75;;;22.62;68.34
15750;BME280;7976;52.526;13.326;2023-08-24T07:17:32;101357.66;;;22.69;67.81
15750;BME280;7976;52.526;13.326;2023-08-24T07:19:59;101357.19;;;22.75;68.00
15750;BME280;7976;52.526;13.326;2023-08-24T07:22:26;101358.41;;;22.82;67.80
15750;BME280;7976;52.526;13.326;2023-08-24T07:24:53;101346.50;;;22.86;67.22
15750;BME280;7976;52.526;13.326;2023-08-24T07:27:21;101348.59;;;22.93;67.07
15750;BME280;7976;52.526;13.326;2023-08-24T07:29:48;101339.25;;;22.99;66.55
15750;BME280;7976;52.526;13.326;2023-08-24T07:32:15;101342.41;;;23.04;66.52
15750;BME280;7976;52.526;13.326;2023-08-24T07:34:42;101341.91;;;23.10;66.64
15750;BME280;7976;52.526;13.326;2023-08-24T07:37:08;101342.38;;;23.15;66.91
15750;BME280;7976;52.526;13.326;2023-08-24T07:39:35;101333.91;;;23.21;66.71
15750;BME280;7976;52.526;13.326;2023-08-24T07:42:03;101324.44;;;23.28;67.05
15750;BME280;7976;52.526;13.326;2023-08-24T07:44:31;101337.31;;;23.34;66.50
15750;BME280;7976;52.526;13.326;2023-08-24T07:46:58;101338.63;;;23.39;66.81
15750;BME280;7976;52.526;13.326;2023-08-24T07:49:24;101332.94;;;23.44;66.83
15750;BME280;7976;52.526;13.326;2023-08-24T07:51:51;101328.88;;;23.49;66.78
15750;BME280;7976;52.526;13.326;2023-08-24T07:54:18;101332.88;;;23.55;66.16
15750;BME280;7976;52.526;13.326;2023-08-24T07:56:46;101333.22;;;23.62;65.93
15750;BME280;7976;52.526;13.326;2023-08-24T07:59:12;101332.63;;;23.69;65.48
15750;BME280;7976;52.526;13.326;2023-08-24T08:01:40;101331.38;;;23.73;65.09
15750;BME280;7976;52.526;13.326;2023-08-24T08:04:07;101322.88;;;23.79;64.78
15750;BME280;7976;52.526;13.326;2023-08-24T08:06:34;101329.50;;;23.85;64.51
15750;BME280;7976;52.526;13.326;2023-08-24T08:09:01;101334.63;;;23.88;64.56
15750;BME280;7976;52.526;13.326;2023-08-24T08:11:28;101333.25;;;23.93;64.77
15750;BME280;7976;52.526;13.326;2023-08-24T08:13:55;101340.31;;;23.94;64.56
15750;BME280;7976;52.526;13.326;2023-08-24T08:16:21;101333.13;;;23.95;64.65
15750;BME280;7976;52.526;13.326;2023-08-24T08:18:49;101326.81;;;23.96;65.00
15750;BME280;7976;52.526;13.326;2023-08-24T08:21:17;101316.47;;;24.02;64.73
15750;BME280;7976;52.526;13.326;2023-08-24T08:23:45;101319.63;;;24.07;64.16
15750;BME280;7976;52.526;13.326;2023-08-24T08:26:12;101324.69;;;24.10;63.70
15750;BME280;7976;52.526;13.326;2023-08-24T08:28:40;101322.16;;;24.09;63.40
15750;BME280;7976;52.526;13.326;2023-08-24T08:31:07;101310.25;;;24.02;63.18
15750;BME280;7976;52.526;13.326;2023-08-24T08:33:34;101309.78;;;23.97;62.72
15750;BME280;7976;52.526;13.326;2023-08-24T08:36:02;101306.75;;;23.90;62.79
15750;BME280;7976;52.526;13.326;2023-08-24T08:38:29;101297.53;;;23.83;63.03
15750;BME280;7976;52.526;13.326;2023-08-24T08:41:02;101302.44;;;23.78;63.39
15750;BME280;7976;52.526;13.326;2023-08-24T08:43:30;101299.88;;;23.77;63.00
15750;BME280;7976;52.526;13.326;2023-08-24T08:45:59;101291.25;;;23.73;63.46
15750;BME280;7976;52.526;13.326;2023-08-24T08:48:29;101299.53;;;23.70;63.91
15750;BME280;7976;52.526;13.326;2023-08-24T08:50:58;101299.53;;;23.70;63.77
15750;BME280;7976;52.526;13.326;2023-08-24T08:53:28;101293.94;;;23.73;64.63
15750;BME280;7976;52.526;13.326;2023-08-24T08:55:56;101286.63;;;23.75;64.78
15750;BME280;7976;52.526;13.326;2023-08-24T08:58:29;101290.03;;;23.77;65.48
15750;BME280;7976;52.526;13.326;2023-08-24T09:00:57;101293.72;;;23.76;65.39
15750;BME280;7976;52.526;13.326;2023-08-24T09:03:28;101293.72;;;23.76;65.93
15750;BME280;7976;52.526;13.326;2023-08-24T09:05:57;101292.00;;;23.75;66.08
15750;BME280;7976;52.526;13.326;2023-08-24T09:08:25;101291.13;;;23.75;66.09
15750;BME280;7976;52.526;13.326;2023-08-24T09:10:53;101293.19;;;23.82;66.15
15750;BME280;7976;52.526;13.326;2023-08-24T09:13:20;101289.34;;;23.96;64.97
15750;BME280;7976;52.526;13.326;2023-08-24T09:15:51;101289.19;;;24.08;64.72
15750;BME280;7976;52.526;13.326;2023-08-24T09:18:19;101283.69;;;24.10;64.65
15750;BME280;7976;52.526;13.326;2023-08-24T09:20:47;101278.50;;;24.08;65.06
15750;BME280;7976;52.526;13.326;2023-08-24T09:23:20;101282.69;;;24.01;64.85
15750;BME280;7976;52.526;13.326;2023-08-24T09:25:47;101274.25;;;23.95;64.29
15750;BME280;7976;52.526;13.326;2023-08-24T09:28:23;101270.63;;;23.96;64.25
15750;BME280;7976;52.526;13.326;2023-08-24T09:30:53;101265.50;;;24.04;63.39
15750;BME280;7976;52.526;13.326;2023-08-24T09:33:20;101266.44;;;24.14;63.80
15750;BME280;7976;52.526;13.326;2023-08-24T09:35:53;101261.41;;;24.20;63.79
15750;BME280;7976;52.526;13.326;2023-08-24T09:38:22;101256.22;;;24.28;63.69
15750;BME280;7976;52.526;13.326;2023-08-24T09:40:51;101259.34;;;24.33;63.24
15750;BME280;7976;52.526;13.326;2023-08-24T09:43:21;101261.53;;;24.39;63.17
15750;BME280;7976;52.526;13.326;2023-08-24T09:45:50;101242.09;;;24.47;62.73
15750;BME280;7976;52.526;13.326;2023-08-24T09:48:18;101245.81;;;24.55;62.37
15750;BME280;7976;52.526;13.326;2023-08-24T09:50:46;101251.34;;;24.63;61.48
15750;BME280;7976;52.526;13.326;2023-08-24T09:53:18;101245.34;;;24.71;60.78
15750;BME280;7976;52.526;13.326;2023-08-24T09:55:53;101240.31;;;24.77;61.51
15750;BME280;7976;52.526;13.326;2023-08-24T09:58:24;101236.94;;;24.85;61.61
15750;BME280;7976;52.526;13.326;2023-08-24T10:00:51;101237.00;;;24.95;61.09
15750;BME280;7976;52.526;13.326;2023-08-24T10:03:20;101235.06;;;25.16;58.89
15750;BME280;7976;52.526;13.326;2023-08-24T10:05:52;101242.47;;;25.42;58.15
15750;BME280;7976;52.526;13.326;2023-08-24T10:08:26;101237.81;;;25.54;57.90
15750;BME280;7976;52.526;13.326;2023-08-24T10:10:56;101222.44;;;25.56;57.49
15750;BME280;7976;52.526;13.326;2023-08-24T10:13:36;101220.59;;;25.56;57.15
15750;BME280;7976;52.526;13.326;2023-08-24T10:16:07;101235.69;;;25.57;57.63
15750;BME280;7976;52.526;13.326;2023-08-24T10:18:37;101231.31;;;25.66;56.63
15750;BME280;7976;52.526;13.326;2023-08-24T10:21:04;101226.81;;;25.76;56.36
15750;BME280;7976;52.526;13.326;2023-08-24T10:23:34;101223.00;;;25.78;55.79
15750;BME280;7976;52.526;13.326;2023-08-24T10:26:03;101219.47;;;25.78;56.25
15750;BME280;7976;52.526;13.326;2023-08-24T10:28:32;101224.13;;;25.76;56.55
15750;BME280;7976;52.526;13.326;2023-08-24T10:31:01;101217.06;;;25.75;56.22
15750;BME280;7976;52.526;13.326;2023-08-24T10:33:29;101230.06;;;25.79;56.73
15750;BME280;7976;52.526;13.326;2023-08-24T10:35:58;101223.56;;;25.82;57.16
15750;BME280;7976;52.526;13.326;2023-08-24T10:38:27;101224.00;;;25.87;57.22
15750;BME280;7976;52.526;13.326;2023-08-24T10:41:02;101233.44;;;25.91;57.67
15750;BME280;7976;52.526;13.326;2023-08-24T10:43:34;101236.81;;;25.93;58.08
15750;BME280;7976;52.526;13.326;2023-08-24T10:46:02;101234.00;;;25.94;57.63
15750;BME280;7976;52.526;13.326;2023-08-24T10:48:57;101229.91;;;26.00;57.76
15750;BME280;7976;52.526;13.326;2023-08-24T10:51:25;101234.25;;;26.01;57.45
15750;BME280;7976;52.526;13.326;2023-08-24T10:53:55;101224.13;;;26.05;57.17
15750;BME280;7976;52.526;13.326;2023-08-24T10:56:32;101220.47;;;26.06;56.26
15750;BME280;7976;52.526;13.326;2023-08-24T10:59:17;101216.78;;;26.07;56.50
15750;BME280;7976;52.526;13.326;2023-08-24T11:01:55;101215.63;;;26.09;55.91
15750;BME280;7976;52.526;13.326;2023-08-24T11:04:23;101204.78;;;26.11;56.37
15750;BME280;7976;52.526;13.326;2023-08-24T11:06:53;101200.78;;;26.15;56.62
15750;BME280;7976;52.526;13.326;2023-08-24T11:09:22;101194.97;;;26.19;56.80
15750;BME280;7976;52.526;13.326;2023-08-24T11:11:57;101192.69;;;26.24;57.29
15750;BME280;7976;52.526;13.326;2023-08-24T11:14:27;101180.69;;;26.28;57.42
15750;BME280;7976;52.526;13.326;2023-08-24T11:16:58;101176.56;;;26.34;57.07
15750;BME280;7976;52.526;13.326;2023-08-24T11:19:26;101167.06;;;26.39;57.65
15750;BME280;7976;52.526;13.326;2023-08-24T11:21:53;101163.81;;;26.45;58.03
15750;BME280;7976;52.526;13.326;2023-08-24T11:24:21;101167.88;;;26.49;56.73
15750;BME280;7976;52.526;13.326;2023-08-24T11:26:49;101161.13;;;26.45;56.72
15750;BME280;7976;52.526;13.326;2023-08-24T11:29:17;101165.47;;;26.46;57.21
15750;BME280;7976;52.526;13.326;2023-08-24T11:31:47;101149.38;;;26.46;57.16
15750;BME280;7976;52.526;13.326;2023-08-24T11:34:15;101149.75;;;26.51;56.53
15750;BME280;7976;52.526;13.326;2023-08-24T11:36:43;101151.31;;;26.54;56.18
15750;BME280;7976;52.526;13.326;2023-08-24T11:39:19;101144.78;;;26.56;55.89
15750;BME280;7976;52.526;13.326;2023-08-24T11:41:57;101139.25;;;26.58;56.47
15750;BME280;7976;52.526;13.326;2023-08-24T11:44:24;101134.59;;;26.60;56.64
15750;BME280;7976;52.526;13.326;2023-08-24T11:46:53;101125.56;;;26.61;56.04
15750;BME280;7976;52.526;13.326;2023-08-24T11:49:19;101129.06;;;26.61;55.86
15750;BME280;7976;52.526;13.326;2023-08-24T11:51:47;101125.56;;;26.61;55.28
15750;BME280;7976;52.526;13.326;2023-08-24T11:54:16;101119.03;;;26.63;54.68
15750;BME280;7976;52.526;13.326;2023-08-24T11:56:44;101123.31;;;26.66;55.55
15750;BME280;7976;52.526;13.326;2023-08-24T11:59:12;101108.84;;;26.67;55.76
15750;BME280;7976;52.526;13.326;2023-08-24T12:01:41;101105.16;;;26.68;55.89
15750;BME280;7976;52.526;13.326;2023-08-24T12:04:10;101111.94;;;26.72;55.87
15750;BME280;7976;52.526;13.326;2023-08-24T12:06:38;101105.41;;;26.74;55.62
15750;BME280;7976;52.526;13.326;2023-08-24T12:09:06;101115.88;;;26.77;55.24
15750;BME280;7976;52.526;13.326;2023-08-24T12:11:36;101115.88;;;26.77;54.93
15750;BME280;7976;52.526;13.326;2023-08-24T12:14:06;101123.63;;;26.80;55.00
15750;BME280;7976;52.526;13.326;2023-08-24T12:16:35;101111.88;;;26.81;55.59
15750;BME280;7976;52.526;13.326;2023-08-24T12:19:07;101103.38;;;26.86;55.53
15750;BME280;7976;52.526;13.326;2023-08-24T12:21:35;101107.72;;;26.87;55.58
15750;BME280;7976;52.526;13.326;2023-08-24T12:24:04;101087.91;;;26.88;55.45
15750;BME280;7976;52.526;13.326;2023-08-24T12:26:32;101084.41;;;26.87;55.35
15750;BME280;7976;52.526;13.326;2023-08-24T12:29:01;101092.47;;;26.87;55.13
15750;BME280;7976;52.526;13.326;2023-08-24T12:31:29;101088.91;;;26.87;55.50
15750;BME280;7976;52.526;13.326;2023-08-24T12:34:01;101090.59;;;26.88;55.37
15750;BME280;7976;52.526;13.326;2023-08-24T12:36:30;101093.28;;;26.88;55.68
15750;BME280;7976;52.526;13.326;2023-08-24T12:38:59;101093.97;;;26.90;56.25
15750;BME280;7976;52.526;13.326;2023-08-24T12:41:26;101088.44;;;26.91;55.65
15750;BME280;7976;52.526;13.326;2023-08-24T12:43:53;101072.72;;;26.96;55.84
15750;BME280;7976;52.526;13.326;2023-08-24T12:46:20;101068.03;;;26.98;55.22
15750;BME280;7976;52.526;13.326;2023-08-24T12:48:47;101068.19;;;26.97;54.86
15750;BME280;7976;52.526;13.326;2023-08-24T12:51:14;101061.13;;;26.96;54.71
15750;BME280;7976;52.526;13.326;2023-08-24T12:53:43;101056.41;;;26.98;54.68
15750;BME280;7976;52.526;13.326;2023-08-24T12:56:11;101058.13;;;26.99;54.62